Time;durP1;ratioP1;P1;durP2;ratioP2;P2;SDS_P1;SDS_P2;PMS_P1;PMS_P2;Temp;Humidity;BMP_temperature;BMP_pressure;BME280_temperature;BME280_humidity;BME280_pressure;Samples;Min_cycle;Max_cycle;Signal;HPM_P1;HPM_P2
2021/05/13 00:01:17;;;;;;;5.20;1.67;;;;;;;;;;5028406;28;20067;-46
2021/05/13 00:03:46;;;;;;;2.65;1.70;;;;;;;;;;5014863;28;20068;-49
2021/05/13 00:06:13;;;;;;;4.88;1.98;;;;;;;;;;5023460;28;20053;-46
2021/05/13 00:08:40;;;;;;;2.58;1.50;;;;;;;;;;5015106;28;20048;-49
2021/05/13 00:11:07;;;;;;;3.05;1.50;;;;;;;;;;5028646;28;20072;-47
2021/05/13 00:13:36;;;;;;;4.63;1.67;;;;;;;;;;5022527;28;20123;-47
2021/05/13 00:16:03;;;;;;;2.50;1.20;;;;;;;;;;5024786;28;20041;-45
2021/05/13 00:18:30;;;;;;;2.40;1.52;;;;;;;;;;5028003;28;20128;-46
2021/05/13 00:20:57;;;;;;;4.68;1.50;;;;;;;;;;5031112;28;20041;-49
2021/05/13 00:23:24;;;;;;;2.15;2.05;;;;;;;;;;5028499;28;20049;-47
2021/05/13 00:25:52;;;;;;;6.03;1.67;;;;;;;;;;5029846;28;20045;-48
2021/05/13 00:28:21;;;;;;;5.80;1.88;;;;;;;;;;5026525;28;20053;-47
2021/05/13 00:30:48;;;;;;;10.98;2.35;;;;;;;;;;5029489;28;20041;-46
2021/05/13 00:33:16;;;;;;;4.20;2.15;;;;;;;;;;5033471;28;20036;-45
2021/05/13 00:35:42;;;;;;;7.38;1.75;;;;;;;;;;5021290;28;20096;-50
2021/05/13 00:38:09;;;;;;;4.45;1.70;;;;;;;;;;5026441;28;20088;-50
2021/05/13 00:40:36;;;;;;;4.65;2.15;;;;;;;;;;5033597;28;20125;-50
2021/05/13 00:43:03;;;;;;;4.38;1.42;;;;;;;;;;5032865;28;20457;-47
2021/05/13 00:45:30;;;;;;;7.22;2.20;;;;;;;;;;5032195;28;20042;-48
2021/05/13 00:50:26;;;;;;;8.75;2.30;;;;;;;;;;5031879;28;20076;-50
2021/05/13 00:52:52;;;;;;;9.30;2.17;;;;;;;;;;5032323;28;20480;-51
2021/05/13 00:55:20;;;;;;;8.32;2.20;;;;;;;;;;5030691;28;20409;-47
2021/05/13 00:57:52;;;;;;;8.25;1.85;;;;;;;;;;5027627;28;20052;-47
2021/05/13 01:02:55;;;;;;;3.28;1.88;;;;;;;;;;5030132;28;20041;-46
2021/05/13 01:05:22;;;;;;;4.15;1.50;;;;;;;;;;5032903;28;20049;-50
2021/05/13 01:07:49;;;;;;;4.38;2.00;;;;;;;;;;5030218;28;20041;-47
2021/05/13 01:10:16;;;;;;;3.42;2.47;;;;;;;;;;5030610;28;20044;-45
2021/05/13 01:12:43;;;;;;;4.68;1.92;;;;;;;;;;5028590;28;20088;-48
2021/05/13 01:15:37;;;;;;;1.95;1.83;;;;;;;;;;5031304;28;20041;-46
2021/05/13 01:18:04;;;;;;;6.60;1.70;;;;;;;;;;5030078;28;20120;-46
2021/05/13 01:20:31;;;;;;;7.18;1.65;;;;;;;;;;5031711;28;20584;-49
2021/05/13 01:22:58;;;;;;;6.80;2.88;;;;;;;;;;5030339;28;20053;-47
2021/05/13 01:25:26;;;;;;;5.45;1.90;;;;;;;;;;5030480;28;20120;-46
2021/05/13 01:27:57;;;;;;;6.30;1.90;;;;;;;;;;5032589;28;20052;-47
2021/05/13 01:30:23;;;;;;;7.57;2.05;;;;;;;;;;5030794;28;20038;-50
2021/05/13 01:32:50;;;;;;;6.90;2.40;;;;;;;;;;5018903;28;20042;-50
2021/05/13 01:35:17;;;;;;;8.18;3.08;;;;;;;;;;5029364;28;20498;-47
2021/05/13 01:37:44;;;;;;;4.18;2.03;;;;;;;;;;5031649;28;20060;-49
2021/05/13 01:40:11;;;;;;;3.70;1.52;;;;;;;;;;5032548;28;20080;-49
2021/05/13 01:42:38;;;;;;;9.93;1.85;;;;;;;;;;5028483;28;20456;-50
2021/05/13 01:45:06;;;;;;;5.55;1.88;;;;;;;;;;5032584;28;20088;-46
2021/05/13 01:47:36;;;;;;;4.35;1.92;;;;;;;;;;5027007;28;20052;-46
2021/05/13 01:50:03;;;;;;;3.58;2.05;;;;;;;;;;5018739;28;20474;-49
2021/05/13 01:52:30;;;;;;;1.88;1.45;;;;;;;;;;5031290;28;20042;-49
2021/05/13 01:54:57;;;;;;;3.72;3.08;;;;;;;;;;5027864;28;20040;-47
2021/05/13 01:57:23;;;;;;;7.05;1.65;;;;;;;;;;5029030;28;21093;-50
2021/05/13 01:59:50;;;;;;;8.52;2.30;;;;;;;;;;5024491;28;20502;-45
2021/05/13 02:02:20;;;;;;;3.30;2.25;;;;;;;;;;5019603;28;20095;-50
2021/05/13 02:04:47;;;;;;;7.90;1.85;;;;;;;;;;5031448;28;20049;-47
2021/05/13 02:07:14;;;;;;;9.63;1.90;;;;;;;;;;5026836;28;20037;-46
2021/05/13 02:09:41;;;;;;;7.32;2.60;;;;;;;;;;5014241;28;20453;-49
2021/05/13 02:12:08;;;;;;;6.50;1.75;;;;;;;;;;5021527;28;20088;-48
2021/05/13 02:14:35;;;;;;;4.93;1.83;;;;;;;;;;5022884;28;20583;-46
2021/05/13 02:17:02;;;;;;;5.15;2.17;;;;;;;;;;5031992;28;20038;-44
2021/05/13 02:19:29;;;;;;;11.02;2.17;;;;;;;;;;5027099;28;20068;-48
2021/05/13 02:21:56;;;;;;;3.30;2.17;;;;;;;;;;5028838;28;20034;-48
2021/05/13 02:24:23;;;;;;;6.15;2.22;;;;;;;;;;5031290;28;20048;-49
2021/05/13 02:26:49;;;;;;;3.55;1.55;;;;;;;;;;5029200;28;20468;-45
2021/05/13 02:29:17;;;;;;;10.02;1.90;;;;;;;;;;5026903;28;20038;-48
2021/05/13 02:31:44;;;;;;;12.05;2.05;;;;;;;;;;5028763;28;20045;-47
2021/05/13 02:34:11;;;;;;;4.97;1.77;;;;;;;;;;5018456;28;20060;-47
2021/05/13 02:36:37;;;;;;;9.25;2.35;;;;;;;;;;5030847;28;20053;-50
2021/05/13 02:39:04;;;;;;;3.70;2.28;;;;;;;;;;5028234;28;20064;-46
2021/05/13 02:41:31;;;;;;;6.85;2.42;;;;;;;;;;5031157;28;20072;-47
2021/05/13 02:43:58;;;;;;;6.50;1.95;;;;;;;;;;5027860;28;20044;-45
2021/05/13 02:46:24;;;;;;;5.32;2.40;;;;;;;;;;5026304;28;20049;-50
2021/05/13 02:48:56;;;;;;;3.75;2.30;;;;;;;;;;5026517;28;20049;-48
2021/05/13 02:51:23;;;;;;;8.93;2.05;;;;;;;;;;5028619;28;20558;-46
2021/05/13 02:53:50;;;;;;;7.70;3.20;;;;;;;;;;5030308;28;20056;-46
2021/05/13 02:56:17;;;;;;;4.82;2.75;;;;;;;;;;5029422;28;20370;-46
2021/05/13 02:58:46;;;;;;;3.85;1.83;;;;;;;;;;5029683;28;20038;-48
2021/05/13 03:01:24;;;;;;;6.65;2.20;;;;;;;;;;5015642;28;20046;-45
2021/05/13 03:03:52;;;;;;;3.00;1.45;;;;;;;;;;5024793;28;20037;-47
2021/05/13 03:06:20;;;;;;;6.55;2.08;;;;;;;;;;5029706;28;20075;-47
2021/05/13 03:08:54;;;;;;;6.10;1.95;;;;;;;;;;5030559;28;20091;-49
2021/05/13 03:11:21;;;;;;;6.78;2.42;;;;;;;;;;5026493;28;20041;-49
2021/05/13 03:13:51;;;;;;;13.40;2.70;;;;;;;;;;5030724;28;20564;-46
2021/05/13 03:16:18;;;;;;;3.70;2.10;;;;;;;;;;5028454;28;20065;-46
2021/05/13 03:18:50;;;;;;;6.55;2.40;;;;;;;;;;5029091;28;20046;-47
2021/05/13 03:26:35;;;;;;;3.30;1.95;;;;;;;;;;5029249;28;20107;-46
2021/05/13 03:29:02;;;;;;;5.93;2.15;;;;;;;;;;5029570;28;20129;-46
2021/05/13 03:31:29;;;;;;;4.93;2.20;;;;;;;;;;5028574;28;20046;-48
2021/05/13 03:33:56;;;;;;;4.25;2.20;;;;;;;;;;5023444;28;20518;-49
2021/05/13 03:36:23;;;;;;;3.90;2.13;;;;;;;;;;5028147;28;20071;-46
2021/05/13 03:38:50;;;;;;;3.65;1.75;;;;;;;;;;5028069;28;20410;-45
2021/05/13 03:41:17;;;;;;;8.65;2.75;;;;;;;;;;5016795;28;20042;-48
2021/05/13 03:43:44;;;;;;;7.53;2.05;;;;;;;;;;5023634;28;20037;-46
2021/05/13 03:46:11;;;;;;;6.78;2.95;;;;;;;;;;5017897;28;20029;-51
2021/05/13 03:48:38;;;;;;;4.30;2.42;;;;;;;;;;5028879;28;20104;-46
2021/05/13 03:51:04;;;;;;;4.20;2.90;;;;;;;;;;5028130;28;20056;-51
2021/05/13 03:53:32;;;;;;;6.25;2.00;;;;;;;;;;5029498;28;20065;-47
2021/05/13 03:55:59;;;;;;;4.18;2.03;;;;;;;;;;5026939;28;20869;-46
2021/05/13 03:58:33;;;;;;;4.95;2.90;;;;;;;;;;5011367;28;20057;-47
2021/05/13 04:01:11;;;;;;;7.72;2.60;;;;;;;;;;5029834;28;20045;-49
2021/05/13 04:03:38;;;;;;;8.90;2.25;;;;;;;;;;5027773;28;20485;-47
2021/05/13 04:06:05;;;;;;;5.47;2.10;;;;;;;;;;5025843;28;20061;-46
2021/05/13 04:08:31;;;;;;;3.20;2.25;;;;;;;;;;5026664;28;20057;-48
2021/05/13 04:10:58;;;;;;;4.60;2.00;;;;;;;;;;5027779;28;20034;-46
2021/05/13 04:13:26;;;;;;;7.28;2.30;;;;;;;;;;5018003;28;20104;-49
2021/05/13 04:15:53;;;;;;;4.38;2.65;;;;;;;;;;5026189;28;20041;-49
2021/05/13 04:18:21;;;;;;;13.48;2.67;;;;;;;;;;5029811;28;20044;-50
2021/05/13 04:20:48;;;;;;;7.88;1.92;;;;;;;;;;5022944;28;20030;-46
2021/05/13 04:23:15;;;;;;;4.90;1.90;;;;;;;;;;5017602;28;20040;-47
2021/05/13 04:25:41;;;;;;;2.67;2.55;;;;;;;;;;5028498;28;20049;-46
2021/05/13 04:28:08;;;;;;;5.22;1.70;;;;;;;;;;5028407;28;20057;-48
2021/05/13 04:30:35;;;;;;;6.78;3.00;;;;;;;;;;5018841;28;20099;-48
2021/05/13 04:33:02;;;;;;;4.05;2.17;;;;;;;;;;5028068;28;20521;-45
2021/05/13 04:35:29;;;;;;;5.47;2.65;;;;;;;;;;5026602;28;20474;-48
2021/05/13 04:37:55;;;;;;;7.82;2.13;;;;;;;;;;5028724;28;20041;-47
2021/05/13 04:40:22;;;;;;;4.30;1.55;;;;;;;;;;5027262;28;20038;-46
2021/05/13 04:42:49;;;;;;;2.83;1.88;;;;;;;;;;5027796;28;20407;-46
2021/05/13 04:45:16;;;;;;;5.70;1.77;;;;;;;;;;5027657;28;20041;-49
2021/05/13 04:50:10;;;;;;;6.18;1.80;;;;;;;;;;5019590;28;20042;-46
2021/05/13 04:52:37;;;;;;;6.25;2.05;;;;;;;;;;5021041;28;20384;-49
2021/05/13 04:55:05;;;;;;;3.85;2.38;;;;;;;;;;5023637;28;20034;-50
2021/05/13 04:57:32;;;;;;;7.25;2.33;;;;;;;;;;5027956;28;20045;-45
2021/05/13 05:00:02;;;;;;;2.30;1.70;;;;;;;;;;5027835;28;20037;-47
2021/05/13 05:02:29;;;;;;;5.47;1.70;;;;;;;;;;5020417;28;20037;-45
2021/05/13 05:04:56;;;;;;;4.93;1.70;;;;;;;;;;5024373;28;20132;-48
2021/05/13 05:07:23;;;;;;;2.58;1.42;;;;;;;;;;5031095;28;20111;-49
2021/05/13 05:09:50;;;;;;;4.75;1.75;;;;;;;;;;5021957;28;20135;-45
2021/05/13 05:12:17;;;;;;;6.20;1.83;;;;;;;;;;5023397;28;20037;-49
2021/05/13 05:14:43;;;;;;;3.33;1.75;;;;;;;;;;5033077;28;20034;-48
2021/05/13 05:17:10;;;;;;;3.10;1.60;;;;;;;;;;5025157;28;20684;-47
2021/05/13 05:19:37;;;;;;;7.35;2.17;;;;;;;;;;5026621;28;20037;-44
2021/05/13 05:22:06;;;;;;;4.45;1.50;;;;;;;;;;5032634;28;20050;-50
2021/05/13 05:24:33;;;;;;;2.65;1.80;;;;;;;;;;5030721;28;20042;-47
2021/05/13 05:27:00;;;;;;;3.60;1.45;;;;;;;;;;5032837;28;20041;-51
2021/05/13 05:29:27;;;;;;;3.90;2.00;;;;;;;;;;5025352;28;20471;-47
2021/05/13 05:31:53;;;;;;;6.28;1.52;;;;;;;;;;5021374;28;20056;-50
2021/05/13 05:34:20;;;;;;;3.83;2.03;;;;;;;;;;5023545;28;20038;-48
2021/05/13 05:36:47;;;;;;;4.43;1.17;;;;;;;;;;5032629;28;20044;-48
2021/05/13 05:39:14;;;;;;;3.95;1.73;;;;;;;;;;5015561;28;20045;-47
2021/05/13 05:41:41;;;;;;;5.88;1.67;;;;;;;;;;5034015;28;20091;-50
2021/05/13 05:44:08;;;;;;;3.22;1.38;;;;;;;;;;5029803;28;20033;-47
2021/05/13 05:46:35;;;;;;;3.80;2.10;;;;;;;;;;5017070;28;20091;-50
2021/05/13 05:49:02;;;;;;;4.90;1.92;;;;;;;;;;5026010;28;20132;-49
2021/05/13 05:51:28;;;;;;;6.93;2.22;;;;;;;;;;5014063;28;20061;-47
2021/05/13 05:53:55;;;;;;;11.38;2.15;;;;;;;;;;5024181;28;20065;-47
2021/05/13 05:56:22;;;;;;;1.70;1.10;;;;;;;;;;5021856;28;20042;-49
2021/05/13 05:58:49;;;;;;;5.55;1.73;;;;;;;;;;5016086;28;20042;-47
2021/05/13 06:01:16;;;;;;;4.30;1.58;;;;;;;;;;5028487;28;20038;-50
2021/05/13 06:03:42;;;;;;;7.03;2.10;;;;;;;;;;5030811;28;20133;-48
2021/05/13 06:06:09;;;;;;;6.78;1.63;;;;;;;;;;5025997;28;20038;-50
2021/05/13 06:08:36;;;;;;;1.85;1.40;;;;;;;;;;5031415;28;20045;-50
2021/05/13 06:11:03;;;;;;;4.90;1.48;;;;;;;;;;5015507;28;20050;-49
2021/05/13 06:13:30;;;;;;;2.55;1.77;;;;;;;;;;5025128;28;20034;-48
2021/05/13 06:15:57;;;;;;;2.65;1.40;;;;;;;;;;5016943;28;20133;-49
2021/05/13 06:18:23;;;;;;;5.88;1.38;;;;;;;;;;5030137;28;20046;-51
2021/05/13 06:20:50;;;;;;;6.75;1.40;;;;;;;;;;5027484;28;20366;-51
2021/05/13 06:23:17;;;;;;;3.10;1.40;;;;;;;;;;5017971;28;20050;-51
2021/05/13 06:25:44;;;;;;;4.13;1.30;;;;;;;;;;5029866;28;20065;-47
2021/05/13 06:28:10;;;;;;;6.60;1.40;;;;;;;;;;5029961;28;20041;-50
2021/05/13 06:30:39;;;;;;;5.35;1.60;;;;;;;;;;5020047;28;20077;-46
2021/05/13 06:33:06;;;;;;;8.27;1.40;;;;;;;;;;5024484;28;20052;-49
2021/05/13 06:35:36;;;;;;;3.63;1.52;;;;;;;;;;5030700;28;20048;-47
2021/05/13 06:38:02;;;;;;;6.15;1.23;;;;;;;;;;5024330;28;20064;-47
2021/05/13 06:40:29;;;;;;;3.92;1.40;;;;;;;;;;5018753;28;20481;-50
2021/05/13 06:42:56;;;;;;;1.92;1.55;;;;;;;;;;5017726;28;20038;-48
2021/05/13 06:45:23;;;;;;;1.70;1.60;;;;;;;;;;5024146;28;20064;-47
2021/05/13 06:47:49;;;;;;;1.20;1.20;;;;;;;;;;5028217;28;20045;-49
2021/05/13 06:50:18;;;;;;;3.92;2.42;;;;;;;;;;5030351;28;20095;-51
2021/05/13 06:52:46;;;;;;;8.95;1.85;;;;;;;;;;5029823;28;20041;-49
2021/05/13 06:55:13;;;;;;;3.20;1.88;;;;;;;;;;5029204;28;20382;-46
2021/05/13 06:57:40;;;;;;;1.20;1.13;;;;;;;;;;5026306;28;20042;-49
2021/05/13 07:00:07;;;;;;;2.88;1.42;;;;;;;;;;5014845;28;20026;-50
2021/05/13 07:02:35;;;;;;;3.40;1.40;;;;;;;;;;5029880;28;20040;-48
2021/05/13 07:05:02;;;;;;;3.80;1.85;;;;;;;;;;5029061;28;20092;-48
2021/05/13 07:07:29;;;;;;;1.52;1.25;;;;;;;;;;5021523;28;20107;-49
2021/05/13 07:09:56;;;;;;;3.53;1.10;;;;;;;;;;5023564;28;20045;-49
2021/05/13 07:12:23;;;;;;;2.60;1.10;;;;;;;;;;5013518;28;20049;-48
2021/05/13 07:14:50;;;;;;;1.50;1.13;;;;;;;;;;5030474;28;20041;-51
2021/05/13 07:17:17;;;;;;;1.30;1.20;;;;;;;;;;5028457;28;20037;-50
2021/05/13 07:19:43;;;;;;;2.67;1.20;;;;;;;;;;5023634;28;20088;-51
2021/05/13 07:22:10;;;;;;;3.47;1.40;;;;;;;;;;5027624;28;20033;-51
2021/05/13 07:24:37;;;;;;;3.38;1.40;;;;;;;;;;5017450;28;20370;-48
2021/05/13 07:27:09;;;;;;;2.25;1.77;;;;;;;;;;5029933;28;20052;-50
2021/05/13 07:29:37;;;;;;;3.13;1.70;;;;;;;;;;5027369;28;20494;-48
2021/05/13 07:32:04;;;;;;;1.73;1.27;;;;;;;;;;5011280;28;20041;-50
2021/05/13 07:34:31;;;;;;;2.78;1.50;;;;;;;;;;5023534;28;20040;-47
2021/05/13 07:36:57;;;;;;;3.38;1.48;;;;;;;;;;5019041;28;20041;-50
2021/05/13 07:39:25;;;;;;;4.65;1.30;;;;;;;;;;5016858;28;20042;-48
2021/05/13 07:41:52;;;;;;;3.30;1.42;;;;;;;;;;5026894;28;20106;-47
2021/05/13 07:44:19;;;;;;;3.38;1.33;;;;;;;;;;5027726;28;20514;-47
2021/05/13 07:46:46;;;;;;;3.13;2.15;;;;;;;;;;5028790;28;20494;-51
2021/05/13 07:49:12;;;;;;;7.38;2.03;;;;;;;;;;5027011;28;20508;-51
2021/05/13 07:51:42;;;;;;;2.92;1.52;;;;;;;;;;5024682;28;20549;-47
2021/05/13 07:54:09;;;;;;;9.50;1.48;;;;;;;;;;5023169;28;20378;-47
2021/05/13 07:56:36;;;;;;;12.63;1.83;;;;;;;;;;5013920;28;20096;-48
2021/05/13 07:59:03;;;;;;;2.33;1.55;;;;;;;;;;5029182;28;20042;-50
2021/05/13 08:01:30;;;;;;;2.33;2.10;;;;;;;;;;5026896;28;20044;-49
2021/05/13 08:03:57;;;;;;;3.17;1.20;;;;;;;;;;5029084;28;20052;-48
2021/05/13 08:06:24;;;;;;;6.88;1.60;;;;;;;;;;5025771;28;20057;-48
2021/05/13 08:08:50;;;;;;;5.22;1.95;;;;;;;;;;5029056;28;20386;-47
2021/05/13 08:11:17;;;;;;;6.82;2.97;;;;;;;;;;5020520;28;20037;-47
2021/05/13 08:13:44;;;;;;;2.05;1.83;;;;;;;;;;5019571;28;20048;-46
2021/05/13 08:16:13;;;;;;;4.13;1.67;;;;;;;;;;5011065;28;20038;-47
2021/05/13 08:18:40;;;;;;;3.80;2.65;;;;;;;;;;5023267;28;20033;-47
2021/05/13 08:21:06;;;;;;;2.20;1.70;;;;;;;;;;5022628;28;20072;-48
2021/05/13 08:23:33;;;;;;;4.22;1.40;;;;;;;;;;5029751;28;20494;-49
2021/05/13 08:26:00;;;;;;;8.60;2.20;;;;;;;;;;5029381;28;20037;-48
2021/05/13 08:28:27;;;;;;;4.20;1.65;;;;;;;;;;5012327;28;20060;-47
2021/05/13 08:30:54;;;;;;;5.85;3.17;;;;;;;;;;5022833;28;20099;-50
2021/05/13 08:33:21;;;;;;;4.20;1.98;;;;;;;;;;5015729;28;20046;-48
2021/05/13 08:35:47;;;;;;;4.22;1.92;;;;;;;;;;5028768;28;20052;-52
2021/05/13 08:38:14;;;;;;;4.45;2.97;;;;;;;;;;5023288;28;20072;-47
2021/05/13 08:40:42;;;;;;;3.08;2.35;;;;;;;;;;5025505;28;20049;-52
2021/05/13 08:43:43;;;;;;;4.45;1.70;;;;;;;;;;5025554;28;20038;-51
2021/05/13 08:46:10;;;;;;;5.43;1.63;;;;;;;;;;5024318;28;20045;-47
2021/05/13 08:48:36;;;;;;;6.28;1.98;;;;;;;;;;5030174;28;20137;-47
2021/05/13 08:51:03;;;;;;;2.10;1.80;;;;;;;;;;5028998;28;20088;-50
2021/05/13 08:53:31;;;;;;;2.55;1.98;;;;;;;;;;5030583;28;20077;-50
2021/05/13 08:55:57;;;;;;;4.60;2.03;;;;;;;;;;5030452;28;20610;-50
2021/05/13 08:58:24;;;;;;;9.18;2.05;;;;;;;;;;5028852;28;20058;-50
2021/05/13 09:00:54;;;;;;;2.80;1.55;;;;;;;;;;5031000;28;20453;-47
2021/05/13 09:03:32;;;;;;;2.20;1.52;;;;;;;;;;5030076;28;20216;-47
2021/05/13 09:05:59;;;;;;;4.75;1.70;;;;;;;;;;5027825;28;20048;-51
2021/05/13 09:08:26;;;;;;;6.20;1.50;;;;;;;;;;5030562;28;20072;-51
2021/05/13 09:10:53;;;;;;;4.32;1.83;;;;;;;;;;5029445;28;20095;-47
2021/05/13 09:13:29;;;;;;;4.13;1.58;;;;;;;;;;5029806;28;20498;-45
2021/05/13 09:15:56;;;;;;;6.03;2.60;;;;;;;;;;5029076;28;20057;-50
2021/05/13 09:18:33;;;;;;;6.40;2.22;;;;;;;;;;5028620;28;20045;-47
2021/05/13 09:21:06;;;;;;;4.93;1.70;;;;;;;;;;5026489;28;20058;-47
2021/05/13 09:23:36;;;;;;;5.07;2.20;;;;;;;;;;5032460;28;20041;-50
2021/05/13 09:26:06;;;;;;;3.15;2.92;;;;;;;;;;5032096;28;20045;-51
2021/05/13 09:28:33;;;;;;;3.22;1.77;;;;;;;;;;5015838;28;20141;-49
2021/05/13 09:30:59;;;;;;;3.70;1.42;;;;;;;;;;5028480;28;20045;-47
2021/05/13 09:33:39;;;;;;;4.63;2.00;;;;;;;;;;5030401;28;20045;-49
2021/05/13 09:36:19;;;;;;;6.05;1.25;;;;;;;;;;5031342;28;20414;-50
2021/05/13 09:38:46;;;;;;;2.38;1.45;;;;;;;;;;5031019;28;20030;-48
2021/05/13 09:41:35;;;;;;;4.72;1.50;;;;;;;;;;5020167;28;20046;-49
2021/05/13 09:44:08;;;;;;;6.13;1.52;;;;;;;;;;5029478;28;20044;-48
2021/05/13 09:46:35;;;;;;;5.55;1.40;;;;;;;;;;5029049;28;20034;-49
2021/05/13 09:49:03;;;;;;;4.55;1.83;;;;;;;;;;5031479;28;20557;-47
2021/05/13 09:51:39;;;;;;;5.05;1.38;;;;;;;;;;5029653;28;20103;-48
2021/05/13 09:54:06;;;;;;;7.30;1.95;;;;;;;;;;5023415;28;20137;-49
2021/05/13 09:56:33;;;;;;;6.05;1.48;;;;;;;;;;5026805;28;20041;-49
2021/05/13 09:59:19;;;;;;;3.35;1.35;;;;;;;;;;5030307;28;20041;-48
2021/05/13 10:01:46;;;;;;;4.28;1.15;;;;;;;;;;5032130;28;20140;-46
2021/05/13 10:04:13;;;;;;;2.17;2.00;;;;;;;;;;5030938;28;20560;-49
2021/05/13 10:06:40;;;;;;;3.17;1.23;;;;;;;;;;5027667;28;20136;-47
2021/05/13 10:09:07;;;;;;;1.52;1.38;;;;;;;;;;5030737;28;20060;-47
2021/05/13 10:11:34;;;;;;;3.80;1.13;;;;;;;;;;5027081;28;20080;-46
2021/05/13 10:14:01;;;;;;;2.63;1.30;;;;;;;;;;5029784;28;20517;-49
2021/05/13 10:16:29;;;;;;;2.53;1.20;;;;;;;;;;5031677;28;20657;-48
2021/05/13 10:19:07;;;;;;;3.83;1.20;;;;;;;;;;5028527;28;20065;-51
2021/05/13 10:21:36;;;;;;;3.90;1.20;;;;;;;;;;5030684;28;20044;-50
2021/05/13 10:24:03;;;;;;;3.83;1.25;;;;;;;;;;5031189;28;20033;-48
2021/05/13 10:26:30;;;;;;;3.42;1.23;;;;;;;;;;5018959;28;20080;-49
2021/05/13 10:28:56;;;;;;;2.05;1.27;;;;;;;;;;5031576;28;20071;-51
2021/05/13 10:31:36;;;;;;;3.00;1.35;;;;;;;;;;5027904;28;20049;-51
2021/05/13 10:34:03;;;;;;;1.92;1.20;;;;;;;;;;5019579;28;20529;-46
2021/05/13 10:36:30;;;;;;;8.10;1.23;;;;;;;;;;5030935;28;20485;-46
2021/05/13 10:39:07;;;;;;;2.70;1.33;;;;;;;;;;5029835;28;20386;-50
2021/05/13 10:41:35;;;;;;;9.13;1.10;;;;;;;;;;5018946;28;20045;-49
2021/05/13 10:44:11;;;;;;;3.53;1.30;;;;;;;;;;5025294;28;20115;-51
2021/05/13 10:46:39;;;;;;;4.05;1.58;;;;;;;;;;5029959;28;20054;-51
2021/05/13 10:49:18;;;;;;;3.58;1.00;;;;;;;;;;5030292;28;20095;-51
2021/05/13 10:51:45;;;;;;;3.63;1.00;;;;;;;;;;5029240;28;20572;-47
2021/05/13 10:54:27;;;;;;;1.77;1.10;;;;;;;;;;5031809;28;20045;-48
2021/05/13 10:57:20;;;;;;;3.60;1.10;;;;;;;;;;5027955;28;20042;-49
2021/05/13 11:00:08;;;;;;;8.82;1.45;;;;;;;;;;5027186;28;20033;-48
2021/05/13 11:02:35;;;;;;;2.70;1.20;;;;;;;;;;5026719;28;20030;-51
2021/05/13 11:05:22;;;;;;;3.05;1.23;;;;;;;;;;5028471;28;20112;-49
2021/05/13 11:07:48;;;;;;;1.70;1.00;;;;;;;;;;5021241;28;20103;-51
2021/05/13 11:10:16;;;;;;;4.10;1.00;;;;;;;;;;5027112;28;20049;-50
2021/05/13 11:12:42;;;;;;;4.20;1.15;;;;;;;;;;5027498;28;20124;-50
2021/05/13 11:17:57;;;;;;;2.53;1.00;;;;;;;;;;5029298;28;20111;-52
2021/05/13 11:20:29;;;;;;;2.30;1.20;;;;;;;;;;5029428;28;20528;-50
2021/05/13 11:22:57;;;;;;;1.92;1.02;;;;;;;;;;5031232;28;20033;-50
2021/05/13 11:25:24;;;;;;;4.32;1.10;;;;;;;;;;5026853;28;20413;-51
2021/05/13 11:27:51;;;;;;;1.00;1.00;;;;;;;;;;5029099;28;20033;-50
2021/05/13 11:30:24;;;;;;;2.15;1.00;;;;;;;;;;5030858;28;20700;-51
2021/05/13 11:32:51;;;;;;;;;;;;;;;;;;5026391;28;20072;-51
2021/05/13 11:35:19;;;;;;;2.03;0.90;;;;;;;;;;5018994;28;19928;-51
2021/05/13 11:37:50;;;;;;;2.30;0.90;;;;;;;;;;5026918;28;20669;-56
2021/05/13 11:40:22;;;;;;;1.20;0.80;;;;;;;;;;5020044;28;20034;-57
2021/05/13 11:42:49;;;;;;;5.28;0.90;;;;;;;;;;5029608;28;20088;-56
2021/05/13 11:45:20;;;;;;;1.88;0.93;;;;;;;;;;5024919;28;20070;-56
2021/05/13 11:47:47;;;;;;;0.90;0.90;;;;;;;;;;5018486;28;20037;-57
2021/05/13 11:50:26;;;;;;;2.78;1.23;;;;;;;;;;5018141;28;20054;-57
2021/05/13 11:53:04;;;;;;;4.75;1.38;;;;;;;;;;5025179;28;20567;-57
2021/05/13 11:55:31;;;;;;;4.38;1.08;;;;;;;;;;5025056;28;20049;-57
2021/05/13 11:57:58;;;;;;;4.65;0.90;;;;;;;;;;5028250;28;20041;-55
2021/05/13 12:00:25;;;;;;;3.72;0.90;;;;;;;;;;5026896;28;20523;-56
2021/05/13 12:03:07;;;;;;;3.40;0.90;;;;;;;;;;5030048;28;20426;-56
2021/05/13 12:05:49;;;;;;;3.05;1.10;;;;;;;;;;5023141;28;20090;-56
2021/05/13 12:08:23;;;;;;;2.45;0.80;;;;;;;;;;5024181;28;20108;-57
2021/05/13 12:10:51;;;;;;;1.55;0.80;;;;;;;;;;5029343;28;20041;-56
2021/05/13 12:13:18;;;;;;;4.70;1.00;;;;;;;;;;5026637;28;20087;-55
2021/05/13 12:15:45;;;;;;;1.48;0.80;;;;;;;;;;5031629;28;20113;-56
2021/05/13 12:18:14;;;;;;;1.85;0.90;;;;;;;;;;5026868;28;20077;-57
2021/05/13 12:20:41;;;;;;;1.90;0.80;;;;;;;;;;5034832;28;20425;-56
2021/05/13 12:23:08;;;;;;;3.38;0.80;;;;;;;;;;5039651;28;20039;-55
2021/05/13 12:25:36;;;;;;;0.70;0.70;;;;;;;;;;5038309;28;20030;-56
2021/05/13 12:28:03;;;;;;;0.70;0.70;;;;;;;;;;5035184;28;20128;-56
2021/05/13 12:30:29;;;;;;;5.43;1.17;;;;;;;;;;5036638;28;20512;-55
2021/05/13 12:32:56;;;;;;;2.65;0.80;;;;;;;;;;5033098;28;20157;-56
2021/05/13 12:35:26;;;;;;;1.10;0.80;;;;;;;;;;5034658;28;20034;-55
2021/05/13 12:37:53;;;;;;;1.42;1.05;;;;;;;;;;5029122;28;20032;-56
2021/05/13 12:40:25;;;;;;;1.00;0.80;;;;;;;;;;5032346;28;20049;-56
2021/05/13 12:43:07;;;;;;;2.67;0.73;;;;;;;;;;5047200;28;20095;-56
2021/05/13 12:46:01;;;;;;;1.80;0.80;;;;;;;;;;5031970;28;20042;-56
2021/05/13 12:48:29;;;;;;;6.70;1.15;;;;;;;;;;5023214;28;20141;-58
2021/05/13 12:51:03;;;;;;;1.20;0.88;;;;;;;;;;5036461;28;20065;-58
2021/05/13 12:53:31;;;;;;;1.42;0.93;;;;;;;;;;5030993;28;20045;-58
2021/05/13 12:55:58;;;;;;;1.08;0.98;;;;;;;;;;5033526;28;20046;-56
2021/05/13 12:58:27;;;;;;;1.50;0.80;;;;;;;;;;5026374;28;20078;-57
2021/05/13 13:00:53;;;;;;;1.40;0.80;;;;;;;;;;5035917;28;20038;-45
2021/05/13 13:03:41;;;;;;;1.00;0.90;;;;;;;;;;5020061;28;20038;-44
2021/05/13 13:06:08;;;;;;;0.90;0.80;;;;;;;;;;5028805;28;20056;-44
2021/05/13 13:08:39;;;;;;;0.75;0.70;;;;;;;;;;5023275;28;20033;-45
2021/05/13 13:11:06;;;;;;;1.58;0.80;;;;;;;;;;5028270;28;20466;-43
2021/05/13 13:13:47;;;;;;;1.60;0.80;;;;;;;;;;5031288;28;20069;-43
2021/05/13 13:16:24;;;;;;;1.33;0.80;;;;;;;;;;5033717;28;20064;-43
2021/05/13 13:19:04;;;;;;;3.40;0.77;;;;;;;;;;5024764;28;20037;-45
2021/05/13 13:21:32;;;;;;;2.65;1.55;;;;;;;;;;5035234;28;20052;-47
2021/05/13 13:23:59;;;;;;;0.80;0.80;;;;;;;;;;5022478;28;20033;-43
2021/05/13 13:26:31;;;;;;;0.80;0.80;;;;;;;;;;5030075;28;20456;-45
2021/05/13 13:28:57;;;;;;;3.83;0.80;;;;;;;;;;5029566;28;20038;-42
2021/05/13 13:31:26;;;;;;;1.17;0.80;;;;;;;;;;5032233;28;20073;-43
2021/05/13 13:33:55;;;;;;;2.05;1.15;;;;;;;;;;5027557;28;20033;-44
2021/05/13 13:36:22;;;;;;;1.75;0.80;;;;;;;;;;5016936;28;20042;-47
2021/05/13 13:38:49;;;;;;;1.35;0.70;;;;;;;;;;5022785;28;20046;-44
2021/05/13 13:41:16;;;;;;;0.80;0.80;;;;;;;;;;5029362;28;20084;-44
2021/05/13 13:43:42;;;;;;;0.70;0.70;;;;;;;;;;5032232;28;20037;-44
2021/05/13 13:46:09;;;;;;;0.80;0.80;;;;;;;;;;5026275;28;20117;-44
2021/05/13 13:48:37;;;;;;;1.85;0.80;;;;;;;;;;5017214;28;20053;-43
2021/05/13 13:51:03;;;;;;;1.00;1.00;;;;;;;;;;5032398;28;20181;-43
2021/05/13 13:53:31;;;;;;;0.80;0.75;;;;;;;;;;5027131;28;20041;-44
2021/05/13 13:55:59;;;;;;;1.92;1.00;;;;;;;;;;5013827;28;20367;-44
2021/05/13 13:58:26;;;;;;;2.08;0.80;;;;;;;;;;5029325;28;20043;-46
2021/05/13 14:00:53;;;;;;;3.13;0.80;;;;;;;;;;5029950;28;20117;-44
2021/05/13 14:03:21;;;;;;;1.63;0.90;;;;;;;;;;5019869;28;20030;-44
2021/05/13 14:05:47;;;;;;;2.42;0.70;;;;;;;;;;5024764;28;20033;-44
2021/05/13 14:08:14;;;;;;;1.55;0.63;;;;;;;;;;5014327;28;20048;-43
2021/05/13 14:10:49;;;;;;;0.70;0.70;;;;;;;;;;5030154;28;20048;-43
2021/05/13 14:13:16;;;;;;;2.08;1.35;;;;;;;;;;5020598;28;20048;-45
2021/05/13 14:15:43;;;;;;;1.38;0.70;;;;;;;;;;5031783;28;20112;-47
2021/05/13 14:18:10;;;;;;;0.70;0.70;;;;;;;;;;5028855;28;20038;-43
2021/05/13 14:20:37;;;;;;;0.68;0.68;;;;;;;;;;5029229;28;20033;-42
2021/05/13 14:23:04;;;;;;;0.73;0.70;;;;;;;;;;5031790;28;20049;-44
2021/05/13 14:25:31;;;;;;;2.85;0.70;;;;;;;;;;5023444;28;20049;-45
2021/05/13 14:27:58;;;;;;;1.50;0.70;;;;;;;;;;5031441;28;20037;-44
2021/05/13 14:30:25;;;;;;;0.73;0.70;;;;;;;;;;5029132;28;20135;-43
2021/05/13 14:32:52;;;;;;;2.95;0.70;;;;;;;;;;5030363;28;20059;-43
2021/05/13 14:35:24;;;;;;;2.83;0.70;;;;;;;;;;5029357;28;20498;-45
2021/05/13 14:37:51;;;;;;;1.20;0.70;;;;;;;;;;5028350;28;20045;-44
2021/05/13 14:40:18;;;;;;;1.90;0.70;;;;;;;;;;5031239;28;20021;-43
2021/05/13 14:42:45;;;;;;;2.03;0.70;;;;;;;;;;5025711;28;20034;-44
2021/05/13 14:45:12;;;;;;;0.70;0.70;;;;;;;;;;5029952;28;20411;-44
2021/05/13 14:47:41;;;;;;;0.98;0.70;;;;;;;;;;5018629;28;20038;-43
2021/05/13 14:50:08;;;;;;;1.75;0.70;;;;;;;;;;5023946;28;20045;-43
2021/05/13 14:52:35;;;;;;;0.68;0.68;;;;;;;;;;5029475;28;20065;-44
2021/05/13 14:55:07;;;;;;;0.70;0.70;;;;;;;;;;5029989;28;20065;-45
2021/05/13 14:57:39;;;;;;;1.15;0.70;;;;;;;;;;5021731;28;20037;-44
2021/05/13 15:00:06;;;;;;;13.45;2.88;;;;;;;;;;5019255;28;20126;-44
2021/05/13 15:02:33;;;;;;;1.25;0.80;;;;;;;;;;5025243;28;20037;-45
2021/05/13 15:05:00;;;;;;;1.50;0.70;;;;;;;;;;5030081;28;20139;-45
2021/05/13 15:07:27;;;;;;;1.83;0.77;;;;;;;;;;5020796;28;20108;-43